Avalon, PA

5:04 PM EDT on April 25, 2015 (GMT -0400)
Allegheny County | | Change Station
CLOSE
Current Station
Airport
Location: Pittsburgh Allegheny Co.,
Elevation: 1253 ft
Nearby Weather Stations

Elev 1253 ft 40.35 °N, 79.92 °W | Updated 11 minutes ago

Mostly Cloudy
Mostly Cloudy
53 °F
Feels Like 53 °F
N
0
Wind Variable Wind from North

Today
High -- | Low -- °F
--% Chance of Precip.
Yesterday
High -- | Low -- °F
Precip. -- in
6:27 AM 8:09 PM
Waxing Crescent, 49% visible
Pressure 29.72 in
Visibility 10.0 miles
Clouds Clear
Dew Point 24 °F
Humidity 32%
Rainfall 0.10 in
Snow Depth Not available.
UV 4 out of 12
Pollen 8.60 out of 12
Air Quality Not available.
Flu Activity Sporadic
METAR KAGC 252053Z 00000KT 10SM CLR 12/M04 A2969 RMK AO2 SLP063 T01171044 56039

More Conditions Fewer Conditions

Pressure 29.72 in
Visibility 10.0 miles
Clouds Clear
Dew Point 24 °F
Humidity 32%
Rainfall 0.10 in
Snow Depth Not available.
UV 4 out of 12
Pollen 8.60 out of 12
Air Quality Not available.
Flu Activity Sporadic
METAR KAGC 252053Z 00000KT 10SM CLR 12/M04 A2969 RMK AO2 SLP063 T01171044 56039

More Conditions Fewer Conditions

10-Day Weather Forecast

Almanac

Astronomy

Apr. 25, 2015 Rise Set
Actual Time
Civil Twilight
Nautical Twilight
Astronomical Twilight
Moon
Length of Visible Light
Length of Day
Tomorrow will be .
, % of the Moon is Illuminated

Today's Extremes

State Highs State Lows

Community

WunderPhotos

Upload Photos

1,816,808 photos uploaded!

WunderBlogs® & News

Nearby

Air Quality

  Air Quality AQ Index Pollutant
Not available.

Snow Depth

Station Depth Elevation

Earthquake Activity

City Distance Mag. Time & Date
Minimum magnitude displayed is 2.5.

Coastal Water Temperatures

Place Temperature

Stations

Nearby Weather Stations

Station Location Temp. Windchill Dew Point Humidity Wind Precip. Elev Updated Type